createdAt,value
2023-04-05T00:01:34.448Z,0.75
2023-04-05T00:04:03.850Z,0.61
2023-04-05T00:06:32.521Z,0.75
2023-04-05T00:09:02.122Z,0.83
2023-04-05T00:11:31.583Z,0.88
2023-04-05T00:14:00.854Z,0.74
2023-04-05T00:16:30.881Z,1.02
2023-04-05T00:19:00.358Z,0.67
2023-04-05T00:21:28.539Z,0.63
2023-04-05T00:23:58.679Z,0.84
2023-04-05T00:26:27.496Z,0.73
2023-04-05T00:28:56.215Z,0.57
2023-04-05T00:31:24.451Z,0.52
2023-04-05T00:33:54.585Z,0.84
2023-04-05T00:36:22.790Z,0.46
2023-04-05T00:38:51.684Z,0.59
2023-04-05T00:41:19.886Z,0.58
2023-04-05T00:43:48.538Z,0.65
2023-04-05T00:46:16.974Z,0.61
2023-04-05T00:48:45.614Z,0.45
2023-04-05T00:51:15.377Z,0.91
2023-04-05T00:53:45.093Z,0.59
2023-04-05T00:56:14.241Z,0.78
2023-04-05T00:58:43.107Z,0.55
2023-04-05T01:01:14.753Z,1.03
2023-04-05T01:03:46.349Z,1.01
2023-04-05T01:06:28.188Z,1.56
2023-04-05T01:09:02.480Z,1.15
2023-04-05T01:11:32.390Z,1.10
2023-04-05T01:14:01.142Z,0.88
2023-04-05T01:16:29.926Z,1.07
2023-04-05T01:18:58.775Z,1.13
2023-04-05T01:22:14.292Z,2.00
2023-04-05T01:24:57.687Z,2.02
2023-04-05T01:27:34.692Z,2.04
2023-04-05T01:30:08.414Z,2.15
2023-04-05T01:32:54.096Z,2.47
2023-04-05T01:35:25.664Z,2.24
2023-04-05T01:37:57.595Z,2.43
2023-04-05T01:40:26.173Z,1.96
2023-04-05T01:42:54.617Z,2.15
2023-04-05T01:45:24.511Z,2.46
2023-04-05T01:47:52.871Z,2.13
2023-04-05T01:50:21.726Z,2.33
2023-04-05T01:52:49.881Z,2.22
2023-04-05T01:55:18.351Z,2.32
2023-04-05T01:57:46.467Z,2.36
2023-04-05T02:00:15.588Z,2.62
2023-04-05T02:02:45.676Z,2.89
2023-04-05T02:05:14.498Z,2.60
2023-04-05T02:07:42.767Z,2.60
2023-04-05T02:10:11.704Z,2.69
2023-04-05T02:12:40.077Z,2.52
2023-04-05T02:15:09.759Z,2.76
2023-04-05T02:17:39.459Z,2.51
2023-04-05T02:20:12.572Z,2.90
2023-04-05T02:22:41.043Z,2.50
2023-04-05T02:25:10.152Z,2.52
2023-04-05T02:27:38.405Z,2.39
2023-04-05T02:30:08.249Z,2.66
2023-04-05T02:32:36.520Z,2.46
2023-04-05T02:35:05.258Z,2.50
2023-04-05T02:37:34.822Z,2.94
2023-04-05T02:40:05.466Z,2.62
2023-04-05T02:42:33.611Z,2.56
2023-04-05T02:45:02.372Z,2.60
2023-04-05T02:47:30.517Z,2.53
2023-04-05T02:49:58.965Z,2.53
2023-04-05T02:52:27.182Z,2.61
2023-04-05T02:54:57.155Z,2.94
2023-04-05T02:57:25.949Z,2.46
2023-04-05T02:59:54.472Z,2.57
2023-04-05T03:02:22.775Z,2.35
2023-04-05T03:04:53.436Z,2.62
2023-04-05T03:07:22.196Z,2.08
2023-04-05T03:09:51.422Z,2.03
2023-04-05T03:12:21.033Z,2.38
2023-04-05T03:14:49.672Z,2.05
2023-04-05T03:17:17.966Z,1.85
2023-04-05T03:19:46.655Z,1.76
2023-04-05T03:22:14.810Z,1.69
2023-04-05T03:24:43.666Z,1.61
2023-04-05T03:27:13.346Z,1.62
2023-04-05T03:29:44.248Z,1.97
2023-04-05T03:32:14.115Z,1.36
2023-04-05T03:34:42.523Z,1.38
2023-04-05T03:37:11.285Z,1.50
2023-04-05T03:39:39.777Z,1.35
2023-04-05T03:42:08.107Z,1.31
2023-04-05T03:44:36.461Z,1.23
2023-04-05T03:47:06.621Z,1.60
2023-04-05T03:49:35.603Z,1.30
2023-04-05T03:52:03.828Z,1.11
2023-04-05T03:54:32.350Z,1.08
2023-04-05T03:57:01.269Z,1.10
2023-04-05T03:59:29.937Z,1.10
2023-04-05T04:01:58.373Z,1.12
2023-04-05T04:04:28.485Z,1.52
2023-04-05T04:06:57.519Z,1.34
2023-04-05T04:09:28.102Z,1.40
2023-04-05T04:11:56.888Z,1.35
2023-04-05T04:14:25.381Z,1.20
2023-04-05T04:16:53.601Z,1.10
2023-04-05T04:19:22.042Z,1.24
2023-04-05T04:21:52.622Z,1.73
2023-04-05T04:24:21.390Z,1.42
2023-04-05T04:26:50.206Z,1.64
2023-04-05T04:29:18.642Z,1.39
2023-04-05T04:31:48.583Z,1.37
2023-04-05T04:34:18.808Z,1.24
2023-04-05T04:36:48.333Z,1.14
2023-04-05T04:39:18.250Z,1.56
2023-04-05T04:41:47.216Z,1.32
2023-04-05T04:44:15.716Z,1.51
2023-04-05T04:46:43.848Z,1.62
2023-04-05T04:49:13.465Z,1.60
2023-04-05T04:51:42.731Z,1.59
2023-04-05T04:54:13.001Z,1.62
2023-04-05T04:56:42.670Z,2.20
2023-04-05T04:59:11.236Z,1.91
2023-04-05T05:01:41.061Z,1.96
2023-04-05T05:04:09.621Z,2.15
2023-04-05T05:06:38.348Z,2.07
2023-04-05T05:09:06.997Z,2.00
2023-04-05T05:11:35.260Z,1.90
2023-04-05T05:14:05.144Z,2.29
2023-04-05T05:16:33.768Z,2.01
2023-04-05T05:19:02.392Z,2.16
2023-04-05T05:21:31.224Z,2.15
2023-04-05T05:23:59.644Z,2.09
2023-04-05T05:26:27.693Z,2.13
2023-04-05T05:28:56.564Z,2.30
2023-04-05T05:31:27.842Z,3.49
2023-04-05T05:33:56.691Z,3.95
2023-04-05T05:36:28.012Z,4.53
2023-04-05T05:38:56.455Z,5.29
2023-04-05T05:41:24.696Z,6.14
2023-04-05T05:43:53.804Z,6.49
2023-04-05T05:46:22.254Z,6.23
2023-04-05T05:48:52.340Z,6.44
2023-04-05T05:51:20.793Z,5.91
2023-04-05T05:53:49.321Z,5.66
2023-04-05T05:56:17.518Z,5.43
2023-04-05T05:58:46.541Z,5.43
2023-04-05T06:01:14.871Z,5.49
2023-04-05T06:03:43.470Z,5.48
2023-04-05T06:06:13.074Z,5.92
2023-04-05T06:08:41.846Z,5.49
2023-04-05T06:11:21.825Z,6.14
2023-04-05T06:13:50.258Z,5.66
2023-04-05T06:16:18.380Z,5.80
2023-04-05T06:18:47.470Z,5.88
2023-04-05T06:21:17.779Z,6.25
2023-04-05T06:23:46.185Z,6.02
2023-04-05T06:26:19.221Z,6.82
2023-04-05T06:28:49.076Z,7.04
2023-04-05T06:31:17.862Z,8.07
2023-04-05T06:33:46.390Z,8.09
2023-04-05T06:36:16.007Z,7.81
2023-04-05T06:38:44.474Z,7.42
2023-04-05T06:41:12.636Z,7.15
2023-04-05T06:43:41.093Z,7.86
2023-04-05T06:46:11.674Z,9.69
2023-04-05T06:48:40.213Z,12.22
2023-04-05T06:51:08.397Z,14.47
2023-04-05T06:53:38.181Z,16.15
2023-04-05T06:56:06.914Z,16.84
2023-04-05T06:58:35.488Z,17.30
2023-04-05T07:01:04.123Z,17.91
2023-04-05T07:03:32.713Z,18.18
2023-04-05T07:06:01.777Z,18.65
2023-04-05T07:08:33.031Z,18.64
2023-04-05T07:11:02.624Z,18.00
2023-04-05T07:13:31.345Z,18.20
2023-04-05T07:16:03.852Z,20.10
2023-04-05T07:18:32.535Z,21.12
2023-04-05T07:21:04.808Z,22.28
2023-04-05T07:23:33.927Z,23.37
2023-04-05T07:26:05.897Z,24.90
2023-04-05T07:28:36.263Z,25.38
2023-04-05T07:31:05.566Z,25.99
2023-04-05T07:33:35.714Z,26.72
2023-04-05T07:36:07.607Z,27.03
2023-04-05T07:38:36.666Z,27.36
2023-04-05T07:41:07.371Z,28.52
2023-04-05T07:43:36.253Z,28.41
2023-04-05T07:46:05.134Z,27.88
2023-04-05T07:48:34.578Z,27.68
2023-04-05T07:51:07.676Z,28.43
2023-04-05T07:53:39.778Z,29.17
2023-04-05T07:56:11.257Z,30.27
2023-04-05T07:58:41.361Z,30.27
2023-04-05T08:01:14.165Z,30.73
2023-04-05T08:03:44.308Z,30.11
2023-04-05T08:06:15.029Z,30.05
2023-04-05T08:08:43.877Z,30.66
2023-04-05T08:11:15.298Z,29.97
2023-04-05T08:13:44.476Z,28.07
2023-04-05T08:16:13.442Z,28.06
2023-04-05T08:18:43.167Z,29.08
2023-04-05T08:21:12.213Z,28.27
2023-04-05T08:23:41.249Z,26.65
2023-04-05T08:26:09.719Z,27.32
2023-04-05T08:28:39.843Z,27.65
2023-04-05T08:31:14.335Z,24.98
2023-04-05T08:33:46.838Z,22.66
2023-04-05T08:36:15.780Z,20.18
2023-04-05T08:38:44.925Z,18.30
2023-04-05T08:41:20.013Z,19.48
2023-04-05T08:43:59.614Z,23.08
2023-04-05T08:46:28.979Z,24.96
2023-04-05T08:48:58.404Z,23.21
2023-04-05T08:51:28.494Z,20.71
2023-04-05T08:53:58.180Z,18.15
2023-04-05T08:56:29.295Z,17.09
2023-04-05T08:59:05.980Z,18.84
2023-04-05T09:01:38.802Z,18.98
2023-04-05T09:04:09.185Z,18.48
2023-04-05T09:06:38.189Z,17.46
2023-04-05T09:09:09.772Z,17.36
2023-04-05T09:11:39.000Z,20.66
2023-04-05T09:14:11.952Z,23.02
2023-04-05T09:16:43.823Z,22.24
2023-04-05T09:19:12.997Z,20.54
2023-04-05T09:22:01.596Z,19.58
2023-04-05T09:24:37.031Z,18.37
2023-04-05T09:27:07.630Z,18.17
2023-04-05T09:29:48.075Z,18.60
2023-04-05T09:32:18.482Z,17.45
2023-04-05T09:34:53.975Z,16.29
2023-04-05T09:37:26.704Z,16.94
2023-04-05T09:40:07.127Z,20.10
2023-04-05T09:42:46.480Z,23.85
2023-04-05T09:45:18.820Z,26.64
2023-04-05T09:47:56.453Z,28.73
2023-04-05T09:50:26.788Z,29.51
2023-04-05T09:53:08.348Z,31.52
2023-04-05T09:55:38.371Z,32.14
2023-04-05T09:58:07.484Z,31.32
2023-04-05T10:00:38.314Z,28.79
2023-04-05T10:03:08.345Z,26.72
2023-04-05T10:05:37.870Z,26.72
2023-04-05T10:08:07.664Z,29.64
2023-04-05T10:10:40.209Z,31.42
2023-04-05T10:13:10.274Z,32.73
2023-04-05T10:15:42.831Z,31.66
2023-04-05T10:18:15.401Z,29.52
2023-04-05T10:20:53.193Z,27.80
2023-04-05T10:23:29.597Z,25.24
2023-04-05T10:26:06.844Z,23.11
2023-04-05T10:28:38.206Z,24.94
2023-04-05T10:31:21.078Z,29.27
2023-04-05T10:34:06.204Z,32.86
2023-04-05T10:36:44.299Z,33.98
2023-04-05T10:39:16.010Z,30.41
2023-04-05T10:42:00.718Z,27.96
2023-04-05T10:44:33.335Z,29.72
2023-04-05T10:47:08.364Z,30.83
2023-04-05T10:49:43.500Z,30.71
2023-04-05T10:52:13.838Z,27.13
2023-04-05T10:54:43.098Z,24.84
2023-04-05T10:57:16.658Z,26.88
2023-04-05T10:59:52.383Z,29.36
2023-04-05T11:02:32.401Z,30.66
2023-04-05T11:05:26.175Z,31.97
2023-04-05T11:08:02.778Z,33.62
2023-04-05T11:10:46.603Z,32.23
2023-04-05T11:13:53.978Z,34.51
2023-04-05T11:16:28.543Z,35.54
2023-04-05T11:18:59.566Z,35.53
2023-04-05T11:21:44.481Z,34.09
2023-04-05T11:24:22.089Z,31.58
2023-04-05T11:26:58.802Z,28.41
2023-04-05T11:29:56.668Z,24.65
2023-04-05T11:32:27.048Z,21.00
2023-04-05T11:35:09.327Z,19.60
2023-04-05T11:38:11.245Z,19.16
2023-04-05T11:40:56.679Z,21.86
2023-04-05T11:43:33.919Z,22.42
2023-04-05T11:46:05.597Z,19.92
2023-04-05T11:48:39.687Z,18.56
2023-04-05T11:51:26.663Z,17.35
2023-04-05T11:54:08.883Z,16.79
2023-04-05T11:56:52.409Z,17.36
2023-04-05T11:59:30.267Z,17.61
2023-04-05T12:02:26.751Z,17.81
2023-04-05T12:05:09.531Z,17.27
2023-04-05T12:08:01.180Z,16.95
2023-04-05T12:10:42.910Z,16.20
2023-04-05T12:13:32.585Z,16.14
2023-04-05T12:16:12.328Z,15.71
2023-04-05T12:18:45.665Z,15.25
2023-04-05T12:21:19.347Z,14.76
2023-04-05T12:24:14.964Z,14.66
2023-04-05T12:26:44.649Z,13.73
2023-04-05T12:29:14.589Z,13.29
2023-04-05T12:31:52.525Z,12.98
2023-04-05T12:34:30.653Z,12.78
2023-04-05T12:37:03.646Z,13.00
2023-04-05T12:39:37.975Z,12.82
2023-04-05T12:42:08.834Z,12.83
2023-04-05T12:44:41.704Z,12.90
2023-04-05T12:47:15.813Z,13.05
2023-04-05T12:49:49.657Z,13.87
2023-04-05T12:52:24.856Z,14.36
2023-04-05T12:54:57.650Z,14.41
2023-04-05T12:57:33.839Z,14.82
2023-04-05T13:00:06.957Z,14.31
2023-04-05T13:02:39.030Z,14.22
2023-04-05T13:05:14.005Z,13.89
2023-04-05T13:07:49.378Z,14.06
2023-04-05T13:10:25.399Z,13.79
2023-04-05T13:12:57.427Z,13.09
2023-04-05T13:15:38.139Z,12.65
2023-04-05T13:18:15.014Z,12.52
2023-04-05T13:20:45.926Z,12.55
2023-04-05T13:23:18.680Z,12.58
2023-04-05T13:25:54.643Z,12.94
2023-04-05T13:28:24.759Z,12.93
2023-04-05T13:30:54.611Z,13.14
2023-04-05T13:33:40.958Z,13.46
2023-04-05T13:36:14.738Z,13.57
2023-04-05T13:38:53.218Z,13.59
2023-04-05T13:41:25.934Z,13.48
2023-04-05T13:43:54.833Z,14.08
2023-04-05T13:46:33.466Z,13.45
2023-04-05T13:49:05.236Z,13.19
2023-04-05T13:51:41.863Z,12.72
2023-04-05T13:54:14.587Z,12.58
2023-04-05T13:56:51.687Z,12.76
2023-04-05T13:59:23.799Z,13.15
2023-04-05T14:01:56.528Z,13.02
2023-04-05T14:04:28.909Z,13.06
2023-04-05T14:07:02.165Z,12.96
2023-04-05T14:09:32.953Z,13.17
2023-04-05T14:12:04.420Z,13.38
2023-04-05T14:14:33.442Z,13.07
2023-04-05T14:17:03.505Z,12.71
2023-04-05T14:19:32.806Z,12.38
2023-04-05T14:22:06.574Z,12.42
2023-04-05T14:24:35.772Z,12.06
2023-04-05T14:27:07.354Z,12.15
2023-04-05T14:29:42.178Z,11.69
2023-04-05T14:32:12.354Z,11.58
2023-04-05T14:34:45.431Z,11.33
2023-04-05T14:37:21.404Z,11.06
2023-04-05T14:39:50.740Z,10.90
2023-04-05T14:42:31.286Z,11.00
2023-04-05T14:45:06.978Z,10.57
2023-04-05T14:47:37.098Z,10.35
2023-04-05T14:50:08.045Z,10.38
2023-04-05T14:52:37.690Z,10.32
2023-04-05T14:55:07.782Z,10.59
2023-04-05T14:57:41.879Z,10.80
2023-04-05T15:00:12.127Z,10.77
2023-04-05T15:02:41.597Z,10.85
2023-04-05T15:05:15.003Z,11.13
2023-04-05T15:07:44.402Z,11.36
2023-04-05T15:10:13.336Z,11.37
2023-04-05T15:12:44.187Z,11.71
2023-04-05T15:15:13.189Z,11.69
2023-04-05T15:17:44.630Z,11.39
2023-04-05T15:20:13.871Z,11.40
2023-04-05T15:22:43.500Z,11.37
2023-04-05T15:25:14.296Z,11.39
2023-04-05T15:27:45.303Z,11.50
2023-04-05T15:30:15.187Z,11.34
2023-04-05T15:32:44.411Z,11.08
2023-04-05T15:35:14.226Z,11.16
2023-04-05T15:37:46.454Z,11.41
2023-04-05T15:40:15.586Z,10.93
2023-04-05T15:42:46.555Z,11.06
2023-04-05T15:45:18.907Z,10.72
2023-04-05T15:47:48.294Z,10.46
2023-04-05T15:50:17.206Z,10.14
2023-04-05T15:52:46.961Z,10.10
2023-04-05T15:55:16.492Z,10.03
2023-04-05T15:57:49.618Z,10.37
2023-04-05T16:00:22.647Z,10.16
2023-04-05T16:02:54.742Z,10.16
2023-04-05T16:05:25.387Z,10.23
2023-04-05T16:07:55.789Z,10.09
2023-04-05T16:10:25.724Z,9.92
2023-04-05T16:12:59.699Z,10.34
2023-04-05T16:15:28.831Z,9.98
2023-04-05T16:18:03.730Z,10.15
2023-04-05T16:20:39.077Z,9.97
2023-04-05T16:23:08.337Z,9.50
2023-04-05T16:25:37.432Z,9.42
2023-04-05T16:28:08.241Z,9.62
2023-04-05T16:30:41.827Z,9.42
2023-04-05T16:33:18.243Z,8.93
2023-04-05T16:38:41.829Z,8.65
2023-04-05T16:41:24.998Z,8.55
2023-04-05T16:43:56.170Z,8.79
2023-04-05T16:46:25.594Z,8.58
2023-04-05T16:48:57.816Z,8.49
2023-04-05T16:51:26.881Z,8.49
2023-04-05T16:53:56.994Z,8.57
2023-04-05T16:56:25.819Z,8.35
2023-04-05T16:58:57.829Z,8.71
2023-04-05T17:01:26.884Z,8.40
2023-04-05T17:04:00.607Z,8.51
2023-04-05T17:06:29.885Z,8.35
2023-04-05T17:09:03.497Z,8.21
2023-04-05T17:11:32.510Z,8.14
2023-04-05T17:14:03.754Z,8.51
2023-04-05T17:16:33.224Z,8.05
2023-04-05T17:19:05.806Z,7.77
2023-04-05T17:21:35.862Z,7.63
2023-04-05T17:24:08.040Z,7.63
2023-04-05T17:26:37.110Z,7.60
2023-04-05T17:29:08.788Z,7.92
2023-04-05T17:31:37.718Z,7.44
2023-04-05T17:34:08.920Z,7.39
2023-04-05T17:36:39.590Z,7.39
2023-04-05T17:39:11.017Z,8.24
2023-04-05T17:41:41.049Z,7.33
2023-04-05T17:44:15.954Z,7.63
2023-04-05T17:46:54.292Z,7.76
2023-04-05T17:49:31.872Z,7.44
2023-04-05T17:52:01.838Z,7.38
2023-04-05T17:54:37.435Z,7.77
2023-04-05T17:57:07.527Z,7.42
2023-04-05T17:59:38.860Z,7.52
2023-04-05T18:02:08.705Z,7.26
2023-04-05T18:04:39.438Z,7.20
2023-04-05T18:07:09.748Z,7.10
2023-04-05T18:09:42.185Z,7.03
2023-04-05T18:12:11.393Z,6.76
2023-04-05T18:14:41.564Z,6.93
2023-04-05T18:17:11.143Z,6.57
2023-04-05T18:19:39.958Z,6.44
2023-04-05T18:22:10.385Z,6.45
2023-04-05T18:24:39.686Z,6.43
2023-04-05T18:27:08.890Z,6.42
2023-04-05T18:29:38.634Z,6.34
2023-04-05T18:32:09.947Z,6.51
2023-04-05T18:34:39.528Z,6.25
2023-04-05T18:37:11.569Z,6.11
2023-04-05T18:39:41.474Z,6.13
2023-04-05T18:42:10.808Z,6.14
2023-04-05T18:44:44.908Z,6.49
2023-04-05T18:47:19.060Z,6.33
2023-04-05T18:49:49.065Z,6.04
2023-04-05T18:52:22.836Z,6.16
2023-04-05T18:54:52.423Z,6.05
2023-04-05T18:57:24.967Z,6.39
2023-04-05T18:59:55.136Z,5.82
2023-04-05T19:02:26.026Z,6.20
2023-04-05T19:04:58.967Z,5.90
2023-04-05T19:07:28.215Z,5.96
2023-04-05T19:10:00.253Z,5.84
2023-04-05T19:12:30.854Z,6.02
2023-04-05T19:15:00.328Z,5.65
2023-04-05T19:17:31.985Z,6.01
2023-04-05T19:20:03.063Z,5.64
2023-04-05T19:22:34.605Z,5.71
2023-04-05T19:25:05.522Z,5.72
2023-04-05T19:27:36.287Z,5.39
2023-04-05T19:30:07.654Z,5.52
2023-04-05T19:32:37.909Z,5.56
2023-04-05T19:35:11.181Z,5.50
2023-04-05T19:37:40.741Z,5.08
2023-04-05T19:40:13.144Z,5.28
2023-04-05T19:42:47.887Z,4.73
2023-04-05T19:45:27.199Z,5.23
2023-04-05T19:47:59.283Z,5.10
2023-04-05T19:50:48.953Z,5.42
2023-04-05T19:53:40.843Z,5.45
2023-04-05T19:56:13.115Z,5.06
2023-04-05T19:58:44.057Z,4.92
2023-04-05T20:01:38.478Z,5.36
2023-04-05T20:04:14.645Z,5.27
2023-04-05T20:06:47.903Z,4.96
2023-04-05T20:09:18.549Z,4.73
2023-04-05T20:11:52.289Z,5.06
2023-04-05T20:14:22.461Z,4.82
2023-04-05T20:16:52.908Z,4.59
2023-04-05T20:19:34.179Z,5.12
2023-04-05T20:22:08.967Z,4.92
2023-04-05T20:24:40.349Z,5.45
2023-04-05T20:27:09.444Z,5.42
2023-04-05T20:29:38.727Z,4.55
2023-04-05T20:32:08.480Z,4.59
2023-04-05T20:34:48.072Z,4.89
2023-04-05T20:37:17.628Z,4.47
2023-04-05T20:39:46.504Z,4.34
2023-04-05T20:42:15.816Z,4.40
2023-04-05T20:44:46.985Z,4.40
2023-04-05T20:47:16.521Z,4.37
2023-04-05T20:49:50.474Z,4.56
2023-04-05T20:52:20.092Z,4.16
2023-04-05T20:54:51.437Z,4.13
2023-04-05T20:57:20.983Z,4.21
2023-04-05T20:59:49.887Z,4.00
2023-04-05T21:02:20.063Z,4.23
2023-04-05T21:04:51.020Z,4.49
2023-04-05T21:07:20.894Z,4.31
2023-04-05T21:09:52.636Z,4.08
2023-04-05T21:12:22.007Z,4.21
2023-04-05T21:14:51.574Z,4.06
2023-04-05T21:17:22.231Z,4.16
2023-04-05T21:19:53.373Z,4.33
2023-04-05T21:22:22.383Z,3.92
2023-04-05T21:24:51.842Z,4.01
2023-04-05T21:27:21.523Z,3.98
2023-04-05T21:29:52.388Z,3.86
2023-04-05T21:32:21.716Z,3.96
2023-04-05T21:34:55.571Z,4.22
2023-04-05T21:37:26.857Z,4.29
2023-04-05T21:39:57.272Z,4.01
2023-04-05T21:42:28.889Z,3.89
2023-04-05T21:44:58.535Z,3.77
2023-04-05T21:47:32.363Z,3.74
2023-04-05T21:50:06.840Z,4.14
2023-04-05T21:52:39.637Z,4.11
2023-04-05T21:55:11.880Z,3.81
2023-04-05T21:57:44.450Z,3.78
2023-04-05T22:00:15.725Z,3.91
2023-04-05T22:02:57.174Z,4.17
2023-04-05T22:05:38.535Z,4.67
2023-04-05T22:08:20.444Z,3.86
2023-04-05T22:10:53.933Z,3.80
2023-04-05T22:13:32.790Z,3.73
2023-04-05T22:16:03.540Z,3.77
2023-04-05T22:18:39.018Z,3.70
2023-04-05T22:21:09.828Z,4.08
2023-04-05T22:23:40.524Z,3.83
2023-04-05T22:26:12.031Z,3.70
2023-04-05T22:28:51.183Z,3.63
2023-04-05T22:31:24.106Z,4.14
2023-04-05T22:33:53.779Z,3.72
2023-04-05T22:36:30.660Z,4.06
2023-04-05T22:39:03.937Z,3.69
2023-04-05T22:41:33.005Z,3.85
2023-04-05T22:44:03.062Z,3.65
2023-04-05T22:46:35.682Z,3.82
2023-04-05T22:49:06.100Z,3.61
2023-04-05T22:51:41.561Z,3.87
2023-04-05T22:54:16.841Z,3.86
2023-04-05T22:56:51.925Z,4.13
2023-04-05T22:59:25.207Z,3.82
2023-04-05T23:01:54.083Z,3.59
2023-04-05T23:04:37.883Z,4.03
2023-04-05T23:07:24.520Z,4.24
2023-04-05T23:10:06.268Z,4.17
2023-04-05T23:12:35.302Z,3.56
2023-04-05T23:15:06.184Z,3.74
2023-04-05T23:17:41.122Z,3.59
2023-04-05T23:20:12.448Z,3.71
2023-04-05T23:22:57.273Z,3.84
2023-04-05T23:25:35.036Z,3.59
2023-04-05T23:28:04.615Z,3.42
2023-04-05T23:30:40.517Z,3.84
2023-04-05T23:33:16.846Z,3.63
2023-04-05T23:35:59.803Z,3.44
2023-04-05T23:38:53.532Z,3.90
2023-04-05T23:41:33.674Z,3.28
2023-04-05T23:44:08.578Z,3.30
2023-04-05T23:46:42.282Z,3.49
2023-04-05T23:49:12.245Z,3.23
2023-04-05T23:51:42.781Z,3.25
2023-04-05T23:54:26.975Z,3.55
2023-04-05T23:57:20.483Z,3.61
2023-04-05T23:59:52.754Z,3.03
